Time;durP1;ratioP1;P1;durP2;ratioP2;P2;SDS_P1;SDS_P2;PMS_P1;PMS_P2;Temp;Humidity;BMP_temperature;BMP_pressure;BME280_temperature;BME280_humidity;BME280_pressure;Samples;Min_cycle;Max_cycle;Signal;HPM_P1;HPM_P2
2021/05/27 00:01:12;;;;;;;3.90;2.60;;;11.60;99.90;;;;;;5056001;28;20180;-64
2021/05/27 00:03:37;;;;;;;4.43;2.90;;;11.60;99.90;;;;;;5038288;28;20275;-64
2021/05/27 00:06:03;;;;;;;5.00;2.93;;;11.50;99.90;;;;;;5055461;28;20200;-64
2021/05/27 00:08:29;;;;;;;4.60;4.20;;;11.50;99.90;;;;;;5055859;28;20191;-63
2021/05/27 00:10:54;;;;;;;5.90;3.30;;;11.40;99.90;;;;;;5055825;28;20219;-64
2021/05/27 00:13:20;;;;;;;4.27;3.40;;;11.30;99.90;;;;;;5055725;28;20184;-64
2021/05/27 00:15:45;;;;;;;7.03;3.80;;;11.30;99.90;;;;;;5055471;28;20181;-64
2021/05/27 00:18:12;;;;;;;5.20;3.90;;;11.30;99.90;;;;;;5055533;28;20193;-64
2021/05/27 00:20:37;;;;;;;4.50;4.10;;;11.30;99.90;;;;;;5055606;28;20180;-64
2021/05/27 00:23:03;;;;;;;4.30;3.43;;;11.30;99.90;;;;;;5055271;28;20177;-64
2021/05/27 00:25:29;;;;;;;5.63;3.40;;;11.20;99.90;;;;;;5055148;28;20272;-64
2021/05/27 00:27:54;;;;;;;4.40;3.30;;;11.30;99.90;;;;;;5055669;28;20208;-64
2021/05/27 00:30:26;;;;;;;5.40;3.43;;;11.30;99.90;;;;;;5055533;28;20671;-64
2021/05/27 00:32:51;;;;;;;3.85;3.53;;;11.20;99.90;;;;;;5055448;28;20185;-64
2021/05/27 00:35:17;;;;;;;3.90;3.60;;;11.20;99.90;;;;;;5054824;28;20181;-64
2021/05/27 00:37:43;;;;;;;4.13;3.20;;;11.20;99.90;;;;;;5054224;28;20200;-64
2021/05/27 00:40:11;;;;;;;3.95;3.60;;;11.20;99.90;;;;;;5055528;28;20188;-64
2021/05/27 00:42:38;;;;;;;4.25;3.70;;;11.00;99.90;;;;;;5055163;28;20181;-63
2021/05/27 00:45:09;;;;;;;7.35;4.25;;;11.00;99.90;;;;;;5054690;28;20550;-64
2021/05/27 00:47:34;;;;;;;4.90;3.45;;;11.00;99.90;;;;;;5055052;28;20181;-63
2021/05/27 00:50:01;;;;;;;4.33;3.93;;;11.10;99.90;;;;;;5054906;28;20226;-63
2021/05/27 00:52:26;;;;;;;4.97;3.97;;;11.00;99.90;;;;;;5037435;28;20431;-64
2021/05/27 00:54:53;;;;;;;6.23;4.13;;;11.10;99.90;;;;;;5054422;28;20203;-61
2021/05/27 00:57:36;;;;;;;4.53;4.13;;;11.20;99.90;;;;;;5054883;28;20297;-63
2021/05/27 01:00:08;;;;;;;4.85;4.07;;;11.20;99.90;;;;;;5054523;28;20519;-64
2021/05/27 01:02:34;;;;;;;5.45;3.55;;;11.10;99.90;;;;;;5054817;28;20192;-61
2021/05/27 01:05:00;;;;;;;4.10;3.70;;;11.10;99.90;;;;;;5054338;28;20181;-67
2021/05/27 01:07:26;;;;;;;6.15;4.05;;;11.10;99.90;;;;;;5054758;28;20184;-67
2021/05/27 01:09:51;;;;;;;5.20;4.03;;;11.00;99.90;;;;;;5054502;28;20193;-64
2021/05/27 01:12:17;;;;;;;6.10;3.70;;;10.90;99.90;;;;;;5054433;28;20248;-61
2021/05/27 01:17:27;;;;;;;6.13;4.10;;;11.10;99.90;;;;;;5054305;28;20700;-63
2021/05/27 01:19:54;;;;;;;4.40;4.00;;;11.10;99.90;;;;;;5054485;28;20604;-64
2021/05/27 01:22:23;;;;;;;6.38;4.35;;;11.10;99.90;;;;;;5054241;28;20540;-64
2021/05/27 01:24:49;;;;;;;4.25;3.33;;;11.00;99.90;;;;;;5054361;28;20176;-63
2021/05/27 01:27:15;;;;;;;5.65;4.25;;;11.10;99.90;;;;;;5054049;28;20173;-63
2021/05/27 01:29:41;;;;;;;6.15;4.10;;;11.00;99.90;;;;;;5054060;28;20517;-63
2021/05/27 01:32:08;;;;;;;9.70;4.10;;;11.10;99.90;;;;;;5054118;28;20180;-63
2021/05/27 01:34:34;;;;;;;5.40;4.28;;;11.20;99.90;;;;;;5053746;28;20541;-64
2021/05/27 01:37:00;;;;;;;4.70;4.25;;;11.20;99.90;;;;;;5054100;28;20550;-64
2021/05/27 01:39:26;;;;;;;5.73;4.33;;;11.30;99.90;;;;;;5054140;28;20260;-64
2021/05/27 01:41:52;;;;;;;9.30;4.70;;;11.40;99.90;;;;;;5053794;28;20683;-64
2021/05/27 01:44:17;;;;;;;4.83;4.30;;;11.20;99.90;;;;;;5053571;28;20264;-64
2021/05/27 01:46:43;;;;;;;7.40;4.23;;;11.10;99.90;;;;;;5054002;28;20664;-64
2021/05/27 01:49:09;;;;;;;4.43;4.10;;;11.00;99.90;;;;;;5053697;28;20177;-64
2021/05/27 01:51:35;;;;;;;4.45;4.03;;;11.20;99.90;;;;;;5053808;28;20303;-64
2021/05/27 01:54:00;;;;;;;5.03;4.63;;;11.20;99.90;;;;;;5053509;28;20280;-67
2021/05/27 01:56:26;;;;;;;5.63;4.60;;;11.10;99.90;;;;;;5053784;28;20264;-67
2021/05/27 01:58:52;;;;;;;4.87;3.93;;;11.00;99.90;;;;;;5053415;28;20192;-67
2021/05/27 02:01:17;;;;;;;5.67;3.97;;;11.00;99.90;;;;;;5053824;28;20188;-67
2021/05/27 02:03:43;;;;;;;5.50;4.07;;;10.80;99.90;;;;;;5053139;28;20223;-67
2021/05/27 02:06:09;;;;;;;4.83;3.80;;;10.90;99.90;;;;;;5053556;28;20507;-67
2021/05/27 02:08:34;;;;;;;4.30;4.00;;;10.90;99.90;;;;;;5035972;28;20191;-67
2021/05/27 02:11:00;;;;;;;10.80;4.73;;;10.90;99.90;;;;;;5035500;28;20217;-64
2021/05/27 02:13:25;;;;;;;5.90;4.00;;;11.00;99.90;;;;;;5053189;28;20195;-64
2021/05/27 02:15:51;;;;;;;3.90;3.60;;;10.90;99.90;;;;;;5053065;28;20185;-64
2021/05/27 02:18:16;;;;;;;4.50;3.33;;;11.00;99.90;;;;;;5052972;28;20208;-65
2021/05/27 02:20:45;;;;;;;4.13;3.30;;;10.90;99.90;;;;;;5053326;28;20286;-64
2021/05/27 02:23:11;;;;;;;6.00;3.42;;;10.80;99.90;;;;;;5052909;28;20607;-64
2021/05/27 02:25:36;;;;;;;4.70;3.43;;;10.80;99.90;;;;;;5053301;28;20693;-64
2021/05/27 02:28:02;;;;;;;4.90;3.63;;;10.80;99.90;;;;;;5052996;28;20634;-64
2021/05/27 02:30:27;;;;;;;5.67;3.97;;;10.80;99.90;;;;;;5053224;28;20209;-64
2021/05/27 02:32:53;;;;;;;5.03;4.07;;;10.60;99.90;;;;;;5052985;28;20169;-64
2021/05/27 02:35:18;;;;;;;7.03;4.10;;;10.70;99.90;;;;;;5052493;28;20641;-64
2021/05/27 02:37:44;;;;;;;5.77;2.90;;;10.60;99.90;;;;;;5053314;28;20209;-64
2021/05/27 02:40:10;;;;;;;5.47;2.87;;;10.50;99.90;;;;;;5052943;28;20609;-61
2021/05/27 02:42:36;;;;;;;8.85;3.47;;;10.50;99.90;;;;;;5053203;28;20667;-67
2021/05/27 02:45:03;;;;;;;4.63;4.23;;;10.50;99.90;;;;;;5052571;28;20212;-67
2021/05/27 02:47:29;;;;;;;8.93;4.05;;;10.50;99.90;;;;;;5052695;28;20294;-67
2021/05/27 02:49:54;;;;;;;4.10;3.70;;;10.60;99.90;;;;;;5052943;28;20177;-67
2021/05/27 02:52:20;;;;;;;5.20;3.50;;;10.60;99.90;;;;;;5052805;28;20671;-64
2021/05/27 02:54:45;;;;;;;7.50;3.63;;;10.60;99.90;;;;;;5052481;28;20255;-64
2021/05/27 02:57:11;;;;;;;7.50;3.77;;;10.70;99.90;;;;;;5052798;28;20180;-64
2021/05/27 02:59:37;;;;;;;6.70;3.83;;;10.60;99.90;;;;;;5053488;28;20254;-64
2021/05/27 03:02:03;;;;;;;4.27;3.20;;;10.70;99.90;;;;;;5056875;28;20192;-64
2021/05/27 03:04:28;;;;;;;8.25;3.47;;;10.60;99.90;;;;;;5056445;28;20203;-64
2021/05/27 03:06:54;;;;;;;7.43;2.90;;;10.50;99.90;;;;;;5053627;28;20195;-64
2021/05/27 03:09:19;;;;;;;5.23;3.17;;;10.40;99.90;;;;;;5056900;28;20259;-64
2021/05/27 03:11:45;;;;;;;4.63;2.90;;;10.40;99.90;;;;;;5056547;28;20642;-64
2021/05/27 03:14:10;;;;;;;3.07;2.57;;;10.40;99.90;;;;;;5055944;28;20181;-63
2021/05/27 03:16:36;;;;;;;4.77;2.00;;;10.30;99.90;;;;;;5056254;28;20195;-63
2021/05/27 03:19:02;;;;;;;4.73;2.30;;;10.30;99.90;;;;;;5056574;28;20177;-64
2021/05/27 03:21:27;;;;;;;2.80;2.03;;;10.40;99.90;;;;;;5056690;28;20189;-63
2021/05/27 03:23:53;;;;;;;3.37;2.30;;;10.50;99.90;;;;;;5038298;28;20181;-63
2021/05/27 03:26:18;;;;;;;2.00;1.73;;;10.40;99.90;;;;;;5038832;28;20214;-64
2021/05/27 03:28:44;;;;;;;3.47;1.90;;;10.60;99.90;;;;;;5056397;28;20491;-64
2021/05/27 03:31:10;;;;;;;2.20;2.00;;;10.60;99.90;;;;;;5038953;28;20201;-63
2021/05/27 03:33:35;;;;;;;4.23;2.43;;;10.60;99.90;;;;;;5056243;28;20720;-63
2021/05/27 03:36:01;;;;;;;3.70;2.40;;;10.60;99.90;;;;;;5055904;28;20362;-63
2021/05/27 03:38:27;;;;;;;4.97;2.10;;;10.60;99.90;;;;;;5056178;28;20173;-64
2021/05/27 03:40:52;;;;;;;6.23;2.73;;;10.50;99.90;;;;;;5056159;28;20181;-64
2021/05/27 03:43:20;;;;;;;3.60;2.30;;;10.40;99.90;;;;;;5055808;28;20200;-64
2021/05/27 03:45:46;;;;;;;3.58;2.55;;;10.30;99.90;;;;;;5055461;28;20618;-64
2021/05/27 03:48:13;;;;;;;3.83;2.40;;;10.30;99.90;;;;;;5055974;28;20191;-64
2021/05/27 03:50:39;;;;;;;4.70;2.47;;;10.30;99.90;;;;;;5056007;28;20236;-64
2021/05/27 03:53:06;;;;;;;2.20;2.00;;;10.30;99.90;;;;;;5055732;28;20185;-64
2021/05/27 03:55:31;;;;;;;5.07;3.30;;;10.30;99.90;;;;;;5055605;28;20173;-64
2021/05/27 03:57:59;;;;;;;3.13;2.30;;;10.30;99.90;;;;;;5055982;28;20264;-64
2021/05/27 04:00:45;;;;;;;2.95;2.05;;;10.40;99.90;;;;;;5055739;28;20209;-64
2021/05/27 04:03:11;;;;;;;4.63;2.15;;;10.40;99.90;;;;;;5055685;28;20260;-67
2021/05/27 04:08:22;;;;;;;3.67;2.53;;;10.50;99.90;;;;;;5055878;28;20195;-67
2021/05/27 04:10:48;;;;;;;3.42;2.60;;;10.50;99.90;;;;;;5037612;28;20212;-67
2021/05/27 04:13:15;;;;;;;3.38;2.72;;;10.40;99.90;;;;;;5037629;28;20693;-67
2021/05/27 04:15:41;;;;;;;2.38;2.13;;;10.50;99.90;;;;;;5054827;28;20207;-67
2021/05/27 04:18:15;;;;;;;3.90;2.40;;;10.30;99.90;;;;;;5038058;28;20529;-66
2021/05/27 04:20:46;;;;;;;4.00;2.33;;;10.40;99.90;;;;;;5055615;28;20267;-67
2021/05/27 04:23:16;;;;;;;3.50;2.05;;;10.30;99.90;;;;;;5055513;28;20630;-62
2021/05/27 04:25:42;;;;;;;2.72;1.75;;;10.20;99.90;;;;;;5055056;28;20203;-62
2021/05/27 04:28:08;;;;;;;4.95;2.58;;;10.40;99.90;;;;;;5055518;28;20189;-65
2021/05/27 04:31:08;;;;;;;2.83;2.20;;;10.40;99.90;;;;;;5055293;28;20623;-66
2021/05/27 04:33:22;;;;;;;2.00;1.90;;;10.40;99.90;;;;;;5055352;28;20581;-64
2021/05/27 04:35:48;;;;;;;2.73;1.83;;;10.50;99.90;;;;;;5055024;28;20585;-63
2021/05/27 04:38:16;;;;;;;2.73;2.07;;;10.40;99.90;;;;;;5037820;28;20181;-62
2021/05/27 04:40:46;;;;;;;2.10;1.90;;;10.60;99.90;;;;;;5055313;28;20912;-64
2021/05/27 04:43:14;;;;;;;2.58;2.08;;;10.70;99.90;;;;;;5037590;28;20184;-64
2021/05/27 04:45:39;;;;;;;4.53;2.30;;;10.80;99.90;;;;;;5054783;28;20206;-63
2021/05/27 04:48:09;;;;;;;4.47;2.97;;;10.80;99.90;;;;;;5055319;28;20566;-63
2021/05/27 04:50:39;;;;;;;5.65;2.05;;;10.80;99.90;;;;;;5054985;28;20668;-63
2021/05/27 04:53:05;;;;;;;4.60;2.22;;;10.70;99.90;;;;;;5055860;28;20184;-63
2021/05/27 04:55:32;;;;;;;6.03;2.88;;;10.60;99.90;;;;;;5055497;28;20180;-64
2021/05/27 04:57:58;;;;;;;3.88;2.72;;;10.60;99.90;;;;;;5055926;28;20184;-63
2021/05/27 05:00:25;;;;;;;3.05;2.30;;;10.70;99.90;;;;;;5055479;28;20279;-63
2021/05/27 05:02:52;;;;;;;2.50;2.20;;;10.60;99.90;;;;;;5037788;28;20188;-63
2021/05/27 05:05:18;;;;;;;2.30;2.00;;;10.60;99.90;;;;;;5054786;28;20177;-63
2021/05/27 05:07:44;;;;;;;2.80;2.22;;;10.70;99.90;;;;;;5054740;28;20172;-63
2021/05/27 05:10:11;;;;;;;3.07;2.30;;;10.80;99.90;;;;;;5054973;28;20223;-63
2021/05/27 05:12:46;;;;;;;4.00;2.70;;;10.70;99.90;;;;;;5055024;28;20637;-63
2021/05/27 05:15:19;;;;;;;3.40;2.55;;;10.60;99.90;;;;;;5054488;28;20255;-63
2021/05/27 05:17:52;;;;;;;3.88;2.70;;;10.70;99.90;;;;;;5054333;28;20291;-63
2021/05/27 05:20:28;;;;;;;3.67;2.65;;;10.80;99.90;;;;;;5054680;28;20276;-63
2021/05/27 05:22:54;;;;;;;8.02;3.20;;;11.00;99.90;;;;;;5054053;28;20504;-63
2021/05/27 05:25:21;;;;;;;2.38;2.10;;;11.20;99.90;;;;;;5053906;28;20195;-63
2021/05/27 05:27:47;;;;;;;6.10;3.05;;;11.20;99.90;;;;;;5054718;28;20181;-64
2021/05/27 05:30:13;;;;;;;4.83;2.50;;;11.00;99.90;;;;;;5055081;28;20266;-63
2021/05/27 05:32:39;;;;;;;3.40;2.67;;;11.10;99.90;;;;;;5055515;28;20208;-64
2021/05/27 05:35:06;;;;;;;10.07;3.20;;;11.10;99.90;;;;;;5054692;28;20177;-64
2021/05/27 05:37:32;;;;;;;4.47;3.10;;;11.30;99.90;;;;;;5054809;28;20184;-63
2021/05/27 05:39:58;;;;;;;4.43;2.80;;;11.30;99.90;;;;;;5053857;28;20177;-63
2021/05/27 05:42:24;;;;;;;6.13;2.70;;;11.30;99.90;;;;;;5053791;28;20207;-63
2021/05/27 05:44:49;;;;;;;4.90;2.57;;;11.30;99.90;;;;;;5053170;28;20516;-63
2021/05/27 05:47:15;;;;;;;5.10;2.50;;;11.30;99.90;;;;;;5053848;28;20226;-63
2021/05/27 05:49:41;;;;;;;6.00;2.50;;;11.20;99.90;;;;;;5053573;28;20208;-64
2021/05/27 05:52:07;;;;;;;5.30;2.47;;;11.10;99.90;;;;;;5053524;28;20242;-66
2021/05/27 05:54:32;;;;;;;4.97;2.50;;;11.20;99.90;;;;;;5052820;28;20690;-67
2021/05/27 05:56:58;;;;;;;3.00;2.20;;;11.20;99.90;;;;;;5053752;28;20732;-64
2021/05/27 05:59:23;;;;;;;5.73;2.20;;;11.10;99.90;;;;;;5053301;28;20537;-64
2021/05/27 06:01:52;;;;;;;4.50;2.27;;;11.20;99.90;;;;;;5053774;28;20207;-64
2021/05/27 06:04:18;;;;;;;2.80;2.15;;;11.10;99.90;;;;;;5052805;28;20288;-64
2021/05/27 06:06:44;;;;;;;3.40;2.30;;;11.20;99.90;;;;;;5053553;28;20264;-64
2021/05/27 06:09:09;;;;;;;3.30;2.00;;;10.90;99.90;;;;;;5053190;28;20526;-64
2021/05/27 06:11:35;;;;;;;4.67;2.00;;;10.90;99.90;;;;;;5052962;28;20540;-64
2021/05/27 06:14:00;;;;;;;6.03;2.60;;;10.90;99.90;;;;;;5052475;28;20230;-64
2021/05/27 06:16:26;;;;;;;3.40;1.60;;;10.80;99.90;;;;;;5053329;28;20180;-64
2021/05/27 06:18:52;;;;;;;4.00;2.27;;;10.90;99.90;;;;;;5035527;28;20204;-64
2021/05/27 06:21:17;;;;;;;3.53;2.47;;;10.90;99.90;;;;;;5052979;28;20195;-64
2021/05/27 06:23:46;;;;;;;3.27;2.47;;;10.90;99.90;;;;;;5035088;28;20208;-64
2021/05/27 06:26:12;;;;;;;4.05;2.40;;;10.90;99.90;;;;;;5035192;28;20188;-64
2021/05/27 06:28:37;;;;;;;2.90;2.00;;;11.10;99.90;;;;;;5053354;28;20568;-67
2021/05/27 06:31:03;;;;;;;5.73;2.63;;;11.10;99.90;;;;;;5052987;28;20220;-67
2021/05/27 06:33:29;;;;;;;2.50;1.83;;;11.40;99.90;;;;;;5052621;28;20169;-67
2021/05/27 06:35:54;;;;;;;2.07;1.70;;;11.60;99.90;;;;;;5051650;28;20855;-67
2021/05/27 06:38:21;;;;;;;4.10;2.00;;;11.60;99.90;;;;;;5035248;28;20660;-67
2021/05/27 06:40:46;;;;;;;2.88;1.55;;;11.70;99.90;;;;;;5035212;28;20629;-64
2021/05/27 06:43:12;;;;;;;2.30;1.67;;;12.80;99.90;;;;;;5052385;28;20188;-64
2021/05/27 06:45:38;;;;;;;3.33;1.70;;;14.00;99.90;;;;;;5052232;28;20227;-64
2021/05/27 06:48:05;;;;;;;2.72;1.83;;;14.20;1.00;;;;;;5052762;28;20219;-64
2021/05/27 06:50:38;;;;;;;4.10;1.30;;;13.90;1.00;;;;;;5035027;28;20291;-64
2021/05/27 06:53:12;;;;;;;2.22;1.10;;;14.00;1.00;;;;;;5052573;28;20196;-64
2021/05/27 06:55:39;;;;;;;3.13;1.20;;;13.60;1.00;;;;;;5048328;28;20521;-64
2021/05/27 06:58:07;;;;;;;1.52;1.42;;;13.30;52.80;;;;;;5052567;28;20183;-64
2021/05/27 07:00:34;;;;;;;3.15;1.77;;;13.30;99.90;;;;;;5052367;28;20482;-63
2021/05/27 07:03:04;;;;;;;1.50;1.40;;;13.10;99.90;;;;;;5052617;28;20287;-63
2021/05/27 07:05:30;;;;;;;2.17;1.52;;;12.90;99.90;;;;;;5051988;28;20177;-63
2021/05/27 07:07:56;;;;;;;2.85;1.75;;;13.00;99.90;;;;;;5052382;28;20177;-63
2021/05/27 07:10:23;;;;;;;2.00;1.60;;;12.90;99.90;;;;;;5052405;28;20299;-63
2021/05/27 07:12:54;;;;;;;1.80;1.70;;;13.40;99.90;;;;;;5052770;28;20190;-64
2021/05/27 07:15:21;;;;;;;2.15;1.83;;;13.70;99.90;;;;;;5034390;28;20189;-63
2021/05/27 07:17:54;;;;;;;1.42;1.33;;;13.80;39.70;;;;;;5044420;28;20276;-62
2021/05/27 07:20:22;;;;;;;1.48;1.38;;;13.80;68.10;;;;;;5051226;28;20187;-61
2021/05/27 07:22:48;;;;;;;2.35;1.77;;;14.10;24.30;;;;;;5052029;28;20511;-62
2021/05/27 07:25:17;;;;;;;1.67;1.27;;;14.10;1.00;;;;;;5038357;28;20261;-62
2021/05/27 07:27:44;;;;;;;1.83;1.35;;;14.30;1.00;;;;;;5052470;28;20181;-62
2021/05/27 07:30:10;;;;;;;1.80;1.60;;;14.50;1.00;;;;;;5051820;28;20254;-64
2021/05/27 07:32:36;;;;;;;3.08;1.70;;;14.70;1.00;;;;;;5052152;28;20259;-62
2021/05/27 07:35:04;;;;;;;1.55;1.30;;;14.70;1.00;;;;;;5051520;28;20315;-62
2021/05/27 07:37:36;;;;;;;2.10;1.48;;;14.50;1.00;;;;;;5052113;28;20188;-63
2021/05/27 07:40:02;;;;;;;2.03;1.77;;;14.10;1.00;;;;;;5052358;28;20558;-61
2021/05/27 07:42:28;;;;;;;2.22;2.10;;;14.10;47.20;;;;;;5052365;28;20203;-61
2021/05/27 07:44:53;;;;;;;5.43;2.27;;;15.00;1.00;;;;;;5051440;28;20599;-61
2021/05/27 07:47:19;;;;;;;2.30;1.73;;;14.90;1.00;;;;;;5054979;28;20511;-61
2021/05/27 07:49:44;;;;;;;4.30;1.60;;;14.70;1.00;;;;;;5055733;28;20272;-61
2021/05/27 07:52:10;;;;;;;1.93;1.70;;;14.50;1.00;;;;;;5055408;28;20200;-61
2021/05/27 07:54:36;;;;;;;2.90;2.10;;;14.90;1.00;;;;;;5054980;28;20180;-63
2021/05/27 07:57:01;;;;;;;3.73;1.90;;;15.30;1.00;;;;;;5055724;28;20180;-62
2021/05/27 07:59:27;;;;;;;1.43;1.13;;;15.50;99.90;;;;;;5056014;28;20177;-63
2021/05/27 08:01:52;;;;;;;3.43;1.57;;;15.40;99.90;;;;;;5055859;28;20181;-61
2021/05/27 08:04:18;;;;;;;2.70;1.70;;;15.10;1.00;;;;;;5054774;28;20679;-62
2021/05/27 08:06:44;;;;;;;3.67;1.30;;;15.50;1.00;;;;;;5055510;28;20273;-62
2021/05/27 08:09:11;;;;;;;4.17;1.50;;;15.50;1.00;;;;;;5055614;28;20522;-60
2021/05/27 08:11:41;;;;;;;3.35;1.40;;;15.00;1.00;;;;;;5055439;28;20212;-63
2021/05/27 08:14:07;;;;;;;2.22;1.23;;;14.90;1.00;;;;;;5054462;28;20176;-62
2021/05/27 08:16:33;;;;;;;3.88;1.90;;;14.50;1.00;;;;;;5055084;28;20202;-64
2021/05/27 08:19:00;;;;;;;3.13;1.35;;;14.60;1.00;;;;;;5055321;28;20208;-62
2021/05/27 08:21:27;;;;;;;3.00;1.67;;;14.40;1.00;;;;;;5055515;28;20177;-62
2021/05/27 08:23:53;;;;;;;3.25;1.60;;;14.30;1.00;;;;;;5054934;28;20173;-62
2021/05/27 08:26:19;;;;;;;2.03;1.83;;;14.40;1.00;;;;;;5054979;28;20529;-62
2021/05/27 08:28:46;;;;;;;2.10;1.50;;;14.30;1.00;;;;;;5055140;28;20181;-61
2021/05/27 08:31:13;;;;;;;1.98;1.30;;;14.50;1.00;;;;;;5055270;28;20208;-64
2021/05/27 08:33:38;;;;;;;2.72;1.63;;;14.60;1.00;;;;;;5054915;28;20264;-65
2021/05/27 08:36:05;;;;;;;1.80;1.40;;;14.90;1.00;;;;;;5054768;28;20873;-66
2021/05/27 08:38:30;;;;;;;6.93;1.75;;;15.00;1.00;;;;;;5055035;28;20173;-64
2021/05/27 08:40:56;;;;;;;2.23;1.27;;;14.60;1.00;;;;;;5054971;28;20181;-62
2021/05/27 08:43:22;;;;;;;2.03;1.50;;;14.00;1.00;;;;;;5054676;28;20177;-62
2021/05/27 08:45:49;;;;;;;2.78;1.67;;;13.70;1.00;;;;;;5054428;28;20525;-63
2021/05/27 08:48:16;;;;;;;2.10;1.50;;;13.70;50.40;;;;;;5054562;28;20189;-64
2021/05/27 08:50:47;;;;;;;4.28;1.70;;;13.80;64.30;;;;;;5054906;28;20206;-65
2021/05/27 08:53:17;;;;;;;1.95;1.50;;;13.60;30.80;;;;;;5054463;28;20610;-66
2021/05/27 08:55:44;;;;;;;3.30;1.70;;;13.50;57.90;;;;;;5036597;28;20191;-66
2021/05/27 08:58:10;;;;;;;5.57;4.43;;;13.60;63.20;;;;;;5053833;28;20205;-66
2021/05/27 09:00:36;;;;;;;2.03;1.43;;;13.80;90.00;;;;;;5054368;28;20224;-66
2021/05/27 09:03:04;;;;;;;2.78;1.50;;;14.20;12.70;;;;;;5036715;28;20446;-64
2021/05/27 09:05:36;;;;;;;2.53;1.60;;;14.30;1.00;;;;;;5054006;28;20183;-64
2021/05/27 09:08:03;;;;;;;2.65;1.42;;;14.60;1.00;;;;;;5054494;28;20192;-65
2021/05/27 09:10:38;;;;;;;1.70;1.60;;;14.60;1.00;;;;;;5047704;28;20213;-64
2021/05/27 09:13:18;;;;;;;2.45;1.20;;;14.60;1.00;;;;;;5054592;28;20330;-66
2021/05/27 09:15:48;;;;;;;2.17;1.42;;;14.80;1.00;;;;;;5054308;28;20189;-67
2021/05/27 09:18:45;;;;;;;1.80;1.30;;;14.60;1.00;;;;;;5052209;28;20201;-66
2021/05/27 09:21:17;;;;;;;1.77;0.98;;;14.40;1.00;;;;;;5037179;28;20192;-64
2021/05/27 09:23:51;;;;;;;5.50;1.25;;;14.10;1.00;;;;;;5053258;28;20226;-64
2021/05/27 09:26:18;;;;;;;1.65;1.38;;;14.10;1.00;;;;;;5036319;28;20250;-62
2021/05/27 09:28:46;;;;;;;2.10;1.00;;;14.10;1.00;;;;;;5053862;28;20181;-65
2021/05/27 09:31:18;;;;;;;1.30;1.20;;;14.30;1.00;;;;;;5053875;28;20270;-62
2021/05/27 09:33:47;;;;;;;2.45;1.30;;;14.40;1.00;;;;;;5051065;28;20181;-64
2021/05/27 09:36:13;;;;;;;2.65;1.75;;;14.50;1.00;;;;;;5050564;28;20177;-65
2021/05/27 09:38:40;;;;;;;1.90;1.27;;;14.70;1.00;;;;;;5053667;28;20192;-65
2021/05/27 09:41:22;;;;;;;4.68;1.60;;;14.50;1.00;;;;;;5054691;28;20614;-65
2021/05/27 09:44:07;;;;;;;3.28;1.30;;;14.30;1.00;;;;;;5053824;28;20169;-64
2021/05/27 09:46:50;;;;;;;2.58;1.70;;;14.20;1.00;;;;;;5053148;28;20220;-64
2021/05/27 09:49:22;;;;;;;3.58;1.38;;;13.90;1.00;;;;;;5052450;28;20312;-67
2021/05/27 09:51:48;;;;;;;2.30;1.10;;;13.90;91.20;;;;;;5048027;28;20552;-65
2021/05/27 09:54:14;;;;;;;1.75;1.35;;;13.90;1.00;;;;;;5044149;28;20266;-66
2021/05/27 09:56:44;;;;;;;2.67;2.10;;;13.80;1.00;;;;;;5046099;28;20216;-66
2021/05/27 09:59:12;;;;;;;2.83;1.42;;;13.70;1.00;;;;;;5053363;28;20242;-65
2021/05/27 10:01:39;;;;;;;3.58;1.85;;;13.60;33.40;;;;;;5052840;28;20234;-65
2021/05/27 10:04:18;;;;;;;4.72;2.15;;;13.50;51.30;;;;;;5052559;28;20184;-66
2021/05/27 10:06:44;;;;;;;2.95;1.38;;;13.70;34.50;;;;;;5053136;28;20181;-65
2021/05/27 10:09:11;;;;;;;3.92;1.85;;;13.80;99.90;;;;;;5051368;28;20410;-66
2021/05/27 10:11:39;;;;;;;4.75;3.35;;;14.20;99.90;;;;;;5053200;28;20212;-66
2021/05/27 10:14:07;;;;;;;3.45;2.20;;;14.40;74.10;;;;;;5035396;28;20202;-65
2021/05/27 10:16:37;;;;;;;3.00;1.70;;;14.50;1.00;;;;;;5053354;28;20562;-65
2021/05/27 10:19:03;;;;;;;5.45;3.75;;;14.60;23.90;;;;;;5053552;28;20168;-65
2021/05/27 10:21:28;;;;;;;3.25;2.08;;;14.50;94.70;;;;;;5053296;28;20181;-67
2021/05/27 10:23:54;;;;;;;2.47;1.87;;;14.40;99.90;;;;;;5052387;28;20685;-68
2021/05/27 10:26:21;;;;;;;3.83;1.93;;;14.50;99.90;;;;;;5053123;28;20212;-67
2021/05/27 10:28:49;;;;;;;3.38;2.03;;;14.50;99.90;;;;;;5053483;28;20256;-67
2021/05/27 10:31:17;;;;;;;2.15;1.95;;;14.20;99.90;;;;;;5053182;28;20209;-66
2021/05/27 10:33:46;;;;;;;3.50;2.53;;;13.50;99.90;;;;;;5052273;28;20173;-66
2021/05/27 10:36:12;;;;;;;3.00;2.35;;;13.50;99.90;;;;;;5053082;28;20499;-66
2021/05/27 10:38:38;;;;;;;2.10;1.93;;;13.70;99.90;;;;;;5053137;28;20173;-66
2021/05/27 10:41:14;;;;;;;5.47;2.45;;;13.70;99.90;;;;;;5053058;28;20260;-66
2021/05/27 10:43:59;;;;;;;8.95;2.47;;;14.00;99.90;;;;;;5053167;28;20176;-66
2021/05/27 10:46:25;;;;;;;3.03;2.40;;;14.20;99.90;;;;;;5053150;28;20610;-67
2021/05/27 10:48:51;;;;;;;5.67;2.30;;;14.70;99.90;;;;;;5035711;28;20195;-67
2021/05/27 10:51:31;;;;;;;2.23;2.03;;;14.70;74.90;;;;;;5053153;28;20474;-66
2021/05/27 10:54:00;;;;;;;2.05;1.65;;;14.50;93.80;;;;;;5053028;28;20426;-67
2021/05/27 10:56:35;;;;;;;5.22;2.10;;;14.70;99.90;;;;;;5053451;28;20231;-66
2021/05/27 10:59:05;;;;;;;3.53;2.50;;;15.30;99.90;;;;;;5052765;28;20200;-66
2021/05/27 11:01:34;;;;;;;2.60;1.73;;;16.00;1.00;;;;;;5053191;28;20427;-66
2021/05/27 11:04:04;;;;;;;5.13;2.10;;;15.90;1.00;;;;;;5052211;28;20454;-66
2021/05/27 11:06:34;;;;;;;3.17;2.13;;;15.50;1.00;;;;;;5051135;28;20455;-66
2021/05/27 11:09:13;;;;;;;5.38;2.05;;;15.00;4.80;;;;;;5042592;28;20451;-66
2021/05/27 11:11:52;;;;;;;2.13;1.50;;;14.50;99.90;;;;;;5047789;28;20262;-65
2021/05/27 11:14:28;;;;;;;3.53;2.47;;;14.40;99.90;;;;;;5051722;28;20180;-64
2021/05/27 11:17:11;;;;;;;5.10;2.40;;;14.50;99.90;;;;;;5035656;28;20200;-66
2021/05/27 11:22:30;;;;;;;2.45;2.20;;;14.90;29.90;;;;;;5056354;28;20192;-68
2021/05/27 11:25:24;;;;;;;4.85;2.30;;;15.00;29.70;;;;;;5057391;28;20219;-67
2021/05/27 11:28:03;;;;;;;3.20;1.90;;;15.40;7.20;;;;;;5057195;28;20180;-67
2021/05/27 11:30:38;;;;;;;2.10;1.90;;;15.40;1.00;;;;;;5057487;28;20593;-69
2021/05/27 11:33:22;;;;;;;2.60;2.40;;;15.50;1.00;;;;;;5057208;28;20230;-64
2021/05/27 11:35:57;;;;;;;3.93;2.50;;;15.80;48.50;;;;;;5056506;28;20792;-65
2021/05/27 11:38:23;;;;;;;3.03;2.30;;;15.80;1.00;;;;;;5057032;28;20533;-61
2021/05/27 11:41:16;;;;;;;2.60;2.38;;;15.70;1.00;;;;;;5056852;28;20208;-61
2021/05/27 11:43:45;;;;;;;2.33;2.10;;;15.50;35.30;;;;;;5048250;28;20193;-63
2021/05/27 11:46:17;;;;;;;4.25;2.20;;;15.30;16.10;;;;;;5036837;28;20289;-64
2021/05/27 11:48:57;;;;;;;2.80;2.60;;;15.50;11.40;;;;;;5036997;28;20185;-66
2021/05/27 11:51:37;;;;;;;2.53;2.33;;;16.00;7.90;;;;;;5019237;28;20924;-66
2021/05/27 11:54:07;;;;;;;3.70;2.00;;;15.90;1.00;;;;;;5036246;28;20897;-66
2021/05/27 11:56:38;;;;;;;2.30;1.80;;;15.10;1.00;;;;;;5036786;28;20984;-66
2021/05/27 11:59:10;;;;;;;2.80;2.07;;;15.00;1.00;;;;;;5036617;28;20183;-66
2021/05/27 12:01:36;;;;;;;2.70;1.90;;;14.50;1.00;;;;;;5036377;28;20434;-64
2021/05/27 12:04:08;;;;;;;1.17;1.08;;;14.00;1.00;;;;;;5051191;28;20489;-65
2021/05/27 12:06:47;;;;;;;1.25;1.10;;;13.10;1.00;;;;;;5056181;28;20186;-65
2021/05/27 12:09:24;;;;;;;0.88;0.80;;;13.00;1.00;;;;;;5056356;28;20672;-65
2021/05/27 12:11:50;;;;;;;0.98;0.60;;;12.80;33.10;;;;;;5056382;28;20215;-66
2021/05/27 12:14:16;;;;;;;0.90;0.80;;;12.80;1.00;;;;;;5037879;28;20177;-64
2021/05/27 12:16:42;;;;;;;0.90;0.70;;;12.90;1.00;;;;;;5055770;28;20222;-65
2021/05/27 12:19:12;;;;;;;0.70;0.70;;;13.20;1.00;;;;;;5056107;28;20259;-65
2021/05/27 12:21:53;;;;;;;1.63;1.00;;;13.80;1.00;;;;;;5038388;28;20431;-64
2021/05/27 12:24:27;;;;;;;1.00;0.60;;;14.20;1.00;;;;;;5055420;28;20180;-61
2021/05/27 12:26:54;;;;;;;0.80;0.60;;;14.10;99.90;;;;;;5055344;28;20628;-64
2021/05/27 12:29:20;;;;;;;1.02;0.52;;;14.20;99.90;;;;;;5056065;28;20251;-63
2021/05/27 12:31:46;;;;;;;0.95;0.80;;;13.90;99.90;;;;;;5055212;28;20281;-63
2021/05/27 12:34:15;;;;;;;1.23;0.90;;;14.40;99.90;;;;;;5054489;28;20613;-63
2021/05/27 12:36:58;;;;;;;1.77;0.90;;;14.90;99.90;;;;;;5055647;28;20211;-63
2021/05/27 12:39:32;;;;;;;2.50;1.27;;;14.80;99.90;;;;;;5038232;28;20423;-63
2021/05/27 12:41:58;;;;;;;2.30;1.25;;;14.30;99.90;;;;;;5055692;28;20431;-62
2021/05/27 12:44:32;;;;;;;2.95;1.10;;;14.60;1.00;;;;;;5054873;28;20593;-63
2021/05/27 12:46:58;;;;;;;1.73;1.23;;;14.70;1.00;;;;;;5056036;28;20598;-63
2021/05/27 12:49:32;;;;;;;1.43;1.33;;;14.60;1.00;;;;;;5056055;28;20169;-66
2021/05/27 12:51:57;;;;;;;1.00;0.90;;;15.10;35.60;;;;;;5055282;28;20208;-66
2021/05/27 12:54:24;;;;;;;2.03;1.27;;;15.40;1.00;;;;;;5037364;28;20185;-64
2021/05/27 12:57:09;;;;;;;1.40;1.30;;;15.60;99.90;;;;;;5055730;28;20431;-65
2021/05/27 12:59:38;;;;;;;3.20;1.57;;;15.60;1.00;;;;;;5055872;28;20455;-66
2021/05/27 13:02:10;;;;;;;1.83;1.63;;;15.70;1.00;;;;;;5055719;28;20459;-65
2021/05/27 13:04:39;;;;;;;2.07;1.17;;;15.40;99.90;;;;;;5034905;28;20444;-66